createdAt,value
2019-01-28T00:04:07.785Z,3.93
2019-01-28T00:06:34.934Z,3.98
2019-01-28T00:12:44.505Z,4.15
2019-01-28T00:17:49.759Z,4.06
2019-01-28T00:26:19.664Z,4.07
2019-01-28T00:31:48.795Z,3.72
2019-01-28T00:34:47.810Z,3.77
2019-01-28T00:43:17.906Z,3.87
2019-01-28T00:45:45.105Z,3.79
2019-01-28T00:51:13.867Z,3.66
2019-01-28T00:53:40.908Z,3.70
2019-01-28T00:56:08.105Z,3.77
2019-01-28T00:59:16.016Z,3.98
2019-01-28T01:04:43.596Z,4.13
2019-01-28T01:07:11.206Z,4.00
2019-01-28T01:09:38.363Z,3.96
2019-01-28T01:12:46.427Z,3.93
2019-01-28T01:18:34.115Z,3.84
2019-01-28T01:21:13.685Z,3.90
2019-01-28T01:23:40.892Z,3.80
2019-01-28T01:26:08.039Z,3.82
2019-01-28T01:28:35.221Z,4.03
2019-01-28T01:37:18.725Z,4.00
2019-01-28T01:39:45.782Z,4.01
2019-01-28T01:42:25.443Z,3.99
2019-01-28T01:45:12.961Z,3.93
2019-01-28T01:48:20.894Z,3.92
2019-01-28T01:54:22.020Z,3.93
2019-01-28T01:57:21.204Z,3.91
2019-01-28T01:59:48.739Z,3.99
2019-01-28T02:02:16.221Z,3.89
2019-01-28T02:05:15.364Z,4.05
2019-01-28T02:11:16.008Z,4.14
2019-01-28T02:13:43.190Z,4.16
2019-01-28T02:19:11.595Z,4.17
2019-01-28T02:24:39.708Z,4.14
2019-01-28T02:27:06.799Z,4.03
2019-01-28T02:29:33.955Z,4.16
2019-01-28T02:32:01.078Z,4.24
2019-01-28T02:34:28.228Z,4.17
2019-01-28T02:36:55.752Z,4.34
2019-01-28T02:40:03.798Z,4.34
2019-01-28T02:42:30.860Z,4.42
2019-01-28T02:44:58.003Z,4.38
2019-01-28T02:47:25.202Z,4.28
2019-01-28T02:53:46.562Z,4.30
2019-01-28T02:56:14.051Z,4.30
2019-01-28T02:58:53.278Z,4.39
2019-01-28T03:13:36.316Z,4.41
2019-01-28T03:16:15.195Z,4.33
2019-01-28T03:18:42.331Z,4.40
2019-01-28T03:21:50.253Z,4.39
2019-01-28T03:31:12.142Z,4.38
2019-01-28T03:33:39.310Z,4.23
2019-01-28T03:42:08.932Z,4.27
2019-01-28T03:44:36.077Z,4.27
2019-01-28T03:53:05.498Z,4.13
2019-01-28T03:55:32.550Z,4.14
2019-01-28T03:57:59.729Z,4.13
2019-01-28T04:00:26.890Z,4.17
2019-01-28T04:07:00.438Z,4.25
2019-01-28T04:15:49.391Z,4.06
2019-01-28T04:18:16.536Z,4.20
2019-01-28T04:26:45.690Z,4.23
2019-01-28T04:29:12.881Z,4.14
2019-01-28T04:34:53.456Z,4.15
2019-01-28T04:37:39.999Z,4.25
2019-01-28T04:40:48.197Z,4.29
2019-01-28T04:46:55.065Z,4.11
2019-01-28T04:52:23.247Z,4.21
2019-01-28T04:54:50.412Z,4.11
2019-01-28T04:57:17.598Z,4.15
2019-01-28T04:59:44.773Z,4.30
2019-01-28T05:02:11.919Z,4.20
2019-01-28T05:04:39.107Z,4.17
2019-01-28T05:13:08.513Z,4.21
2019-01-28T05:15:35.681Z,4.04
2019-01-28T05:18:14.642Z,3.97
2019-01-28T05:20:41.704Z,4.06
2019-01-28T05:23:49.694Z,4.05
2019-01-28T05:26:16.868Z,3.97
2019-01-28T05:28:44.032Z,3.93
2019-01-28T05:31:52.038Z,3.94
2019-01-28T05:34:19.185Z,4.09
2019-01-28T05:36:46.395Z,4.21
2019-01-28T05:39:13.575Z,4.17
2019-01-28T05:41:40.756Z,4.13
2019-01-28T05:44:20.213Z,4.23
2019-01-28T05:46:47.363Z,4.30
2019-01-28T05:49:14.544Z,4.33
2019-01-28T05:54:43.480Z,4.29
2019-01-28T05:57:10.648Z,4.35
2019-01-28T05:59:37.801Z,4.31
2019-01-28T06:02:05.338Z,4.20
2019-01-28T06:04:32.485Z,4.35
2019-01-28T06:06:59.716Z,4.34
2019-01-28T06:09:26.886Z,4.23
2019-01-28T06:11:54.064Z,4.14
2019-01-28T06:14:21.207Z,4.12
2019-01-28T06:16:48.440Z,4.14
2019-01-28T06:19:15.625Z,4.14
2019-01-28T06:21:42.928Z,4.02
2019-01-28T06:24:10.045Z,3.95
2019-01-28T06:26:37.206Z,3.93
2019-01-28T06:29:04.383Z,4.05
2019-01-28T06:31:32.238Z,4.01
2019-01-28T06:33:59.427Z,3.99
2019-01-28T06:36:26.577Z,3.90
2019-01-28T06:38:53.931Z,3.85
2019-01-28T06:41:21.092Z,3.93
2019-01-28T06:43:48.523Z,3.95
2019-01-28T06:46:15.689Z,4.15
2019-01-28T06:48:42.845Z,4.19
2019-01-28T06:51:10.454Z,4.08
2019-01-28T06:53:37.601Z,4.01
2019-01-28T06:56:04.776Z,3.88
2019-01-28T06:58:31.926Z,3.98
2019-01-28T07:00:59.151Z,4.11
2019-01-28T07:03:26.517Z,3.97
2019-01-28T07:05:53.592Z,3.93
2019-01-28T07:08:20.778Z,3.99
2019-01-28T07:10:47.969Z,4.07
2019-01-28T07:13:15.137Z,3.93
2019-01-28T07:15:42.339Z,3.88
2019-01-28T07:18:09.380Z,3.70
2019-01-28T07:20:36.480Z,3.76
2019-01-28T07:23:03.959Z,3.72
2019-01-28T07:25:31.155Z,3.69
2019-01-28T07:27:58.326Z,3.70
2019-01-28T07:30:30.594Z,3.60
2019-01-28T07:32:57.798Z,3.68
2019-01-28T07:35:25.082Z,3.69
2019-01-28T07:37:52.270Z,3.72
2019-01-28T07:40:19.511Z,3.72
2019-01-28T07:42:46.669Z,3.73
2019-01-28T07:45:16.888Z,3.74
2019-01-28T07:47:43.993Z,3.94
2019-01-28T07:50:11.145Z,3.91
2019-01-28T07:52:38.391Z,3.87
2019-01-28T07:55:05.838Z,3.76
2019-01-28T07:57:32.987Z,3.75
2019-01-28T08:00:00.920Z,3.78
2019-01-28T08:02:28.134Z,3.73
2019-01-28T08:04:55.397Z,4.12
2019-01-28T08:07:22.806Z,4.03
2019-01-28T08:09:50.073Z,3.99
2019-01-28T08:12:17.250Z,3.96
2019-01-28T08:14:44.762Z,4.02
2019-01-28T08:17:11.912Z,4.08
2019-01-28T08:19:39.077Z,4.01
2019-01-28T08:22:06.346Z,3.98
2019-01-28T08:24:33.782Z,3.98
2019-01-28T08:27:00.867Z,4.19
2019-01-28T08:29:28.092Z,4.18
2019-01-28T08:31:55.164Z,4.27
2019-01-28T08:34:22.318Z,4.29
2019-01-28T08:36:49.602Z,4.25
2019-01-28T08:39:16.768Z,4.28
2019-01-28T08:41:43.943Z,4.30
2019-01-28T08:44:11.130Z,4.25
2019-01-28T08:46:38.308Z,4.40
2019-01-28T08:49:05.471Z,4.40
2019-01-28T08:51:32.709Z,4.36
2019-01-28T08:53:59.879Z,4.42
2019-01-28T08:56:27.324Z,4.41
2019-01-28T08:58:54.517Z,4.33
2019-01-28T09:01:21.720Z,4.31
2019-01-28T09:03:48.929Z,4.36
2019-01-28T09:06:16.389Z,4.26
2019-01-28T09:08:43.903Z,4.19
2019-01-28T09:11:11.105Z,4.24
2019-01-28T09:13:38.216Z,4.27
2019-01-28T09:16:05.436Z,4.12
2019-01-28T09:18:32.687Z,4.11
2019-01-28T09:21:00.170Z,4.17
2019-01-28T09:23:27.364Z,4.26
2019-01-28T09:25:54.508Z,4.11
2019-01-28T09:28:21.724Z,3.89
2019-01-28T09:30:49.041Z,3.90
2019-01-28T09:33:16.633Z,3.83
2019-01-28T09:35:43.733Z,3.77
2019-01-28T09:38:10.928Z,3.70
2019-01-28T09:40:38.296Z,3.82
2019-01-28T09:43:06.092Z,3.77
2019-01-28T09:45:35.617Z,3.90
2019-01-28T09:48:03.301Z,3.79
2019-01-28T09:50:30.424Z,3.78
2019-01-28T09:52:58.337Z,3.95
2019-01-28T09:55:25.672Z,3.92
2019-01-28T09:57:52.950Z,4.03
2019-01-28T10:00:23.713Z,4.13
2019-01-28T10:02:51.197Z,4.17
2019-01-28T10:05:18.467Z,4.15
2019-01-28T10:07:45.686Z,4.18
2019-01-28T10:10:14.396Z,4.05
2019-01-28T10:12:41.773Z,4.05
2019-01-28T10:15:10.795Z,4.16
2019-01-28T10:17:37.859Z,4.17
2019-01-28T10:20:07.779Z,4.23
2019-01-28T10:22:34.999Z,4.21
2019-01-28T10:25:02.139Z,4.20
2019-01-28T10:27:29.331Z,4.28
2019-01-28T10:29:56.489Z,4.23
2019-01-28T10:32:23.595Z,4.24
2019-01-28T10:34:51.729Z,4.23
2019-01-28T10:37:18.738Z,4.21
2019-01-28T10:39:45.937Z,4.40
2019-01-28T10:42:13.135Z,4.53
2019-01-28T10:44:40.286Z,4.48
2019-01-28T10:47:07.767Z,4.42
2019-01-28T10:49:34.995Z,4.35
2019-01-28T10:52:02.216Z,4.53
2019-01-28T10:54:37.453Z,4.58
2019-01-28T10:57:05.184Z,4.76
2019-01-28T10:59:32.369Z,4.69
2019-01-28T11:01:59.578Z,4.73
2019-01-28T11:04:27.100Z,4.71
2019-01-28T11:06:56.162Z,4.72
2019-01-28T11:09:23.336Z,4.72
2019-01-28T11:11:50.872Z,4.70
2019-01-28T11:14:18.400Z,4.64
2019-01-28T11:16:45.689Z,4.65
2019-01-28T11:19:12.839Z,4.51
2019-01-28T11:21:40.089Z,4.48
2019-01-28T11:24:07.117Z,4.50
2019-01-28T11:26:34.446Z,4.56
2019-01-28T11:29:01.671Z,4.78
2019-01-28T11:31:28.901Z,4.79
2019-01-28T11:33:56.183Z,4.78
2019-01-28T11:36:23.419Z,4.69
2019-01-28T11:38:50.633Z,4.65
2019-01-28T11:41:17.810Z,4.53
2019-01-28T11:43:45.264Z,4.57
2019-01-28T11:46:12.512Z,4.60
2019-01-28T11:48:39.828Z,4.67
2019-01-28T11:51:07.297Z,4.76
2019-01-28T11:53:34.516Z,4.83
2019-01-28T11:56:01.700Z,4.88
2019-01-28T11:58:28.900Z,5.10
2019-01-28T12:01:10.997Z,5.21
2019-01-28T12:03:38.109Z,5.10
2019-01-28T12:06:05.315Z,5.04
2019-01-28T12:08:32.981Z,5.16
2019-01-28T12:11:00.099Z,5.15
2019-01-28T12:13:27.286Z,5.18
2019-01-28T12:15:54.516Z,5.17
2019-01-28T12:18:21.691Z,5.23
2019-01-28T12:20:53.618Z,5.28
2019-01-28T12:23:18.060Z,5.29
2019-01-28T12:25:45.396Z,5.41
2019-01-28T12:28:12.573Z,5.57
2019-01-28T12:30:39.934Z,5.64
2019-01-28T12:33:07.020Z,5.73
2019-01-28T12:35:34.124Z,5.84
2019-01-28T12:38:01.338Z,5.84
2019-01-28T12:40:28.818Z,5.82
2019-01-28T12:42:56.015Z,5.75
2019-01-28T12:45:23.490Z,5.85
2019-01-28T12:47:50.600Z,5.89
2019-01-28T12:50:18.284Z,6.00
2019-01-28T12:52:45.470Z,6.03
2019-01-28T12:55:14.512Z,6.12
2019-01-28T12:57:41.752Z,6.10
2019-01-28T13:00:11.740Z,6.09
2019-01-28T13:02:38.918Z,6.16
2019-01-28T13:05:08.148Z,6.19
2019-01-28T13:07:35.620Z,6.18
2019-01-28T13:10:04.813Z,6.24
2019-01-28T13:12:32.014Z,6.11
2019-01-28T13:14:59.242Z,6.19
2019-01-28T13:17:26.433Z,6.10
2019-01-28T13:19:53.821Z,6.05
2019-01-28T13:22:21.004Z,6.11
2019-01-28T13:24:48.199Z,6.12
2019-01-28T13:27:15.481Z,6.10
2019-01-28T13:29:42.569Z,6.10
2019-01-28T13:32:09.723Z,6.09
2019-01-28T13:34:36.912Z,6.10
2019-01-28T13:37:04.144Z,6.12
2019-01-28T13:39:31.328Z,6.22
2019-01-28T13:41:58.478Z,6.25
2019-01-28T13:44:26.002Z,6.32
2019-01-28T13:46:53.192Z,6.24
2019-01-28T13:49:20.439Z,6.13
2019-01-28T13:51:47.981Z,6.07
2019-01-28T13:54:15.376Z,6.07
2019-01-28T13:56:42.985Z,6.02
2019-01-28T13:59:16.205Z,6.06
2019-01-28T14:01:39.430Z,6.10
2019-01-28T14:04:06.731Z,6.12
2019-01-28T14:06:33.950Z,6.02
2019-01-28T14:09:01.105Z,5.97
2019-01-28T14:11:28.209Z,6.00
2019-01-28T14:13:55.688Z,6.01
2019-01-28T14:16:22.765Z,6.05
2019-01-28T14:18:50.813Z,6.10
2019-01-28T14:21:18.066Z,5.92
2019-01-28T14:23:45.295Z,5.86
2019-01-28T14:26:12.819Z,5.91
2019-01-28T14:28:40.130Z,5.78
2019-01-28T14:31:07.328Z,5.82
2019-01-28T14:33:34.603Z,5.75
2019-01-28T14:36:01.843Z,5.76
2019-01-28T14:38:29.007Z,5.69
2019-01-28T14:40:56.194Z,5.69
2019-01-28T14:43:23.428Z,5.71
2019-01-28T14:45:50.521Z,5.80
2019-01-28T14:48:17.715Z,5.71
2019-01-28T14:50:44.833Z,5.63
2019-01-28T14:53:12.135Z,5.71
2019-01-28T14:55:39.315Z,5.79
2019-01-28T14:58:08.610Z,5.69
2019-01-28T15:00:36.867Z,5.68
2019-01-28T15:03:04.192Z,5.58
2019-01-28T15:05:31.294Z,5.49
2019-01-28T15:07:58.850Z,5.41
2019-01-28T15:10:26.239Z,5.35
2019-01-28T15:12:53.556Z,5.24
2019-01-28T15:15:23.363Z,5.41
2019-01-28T15:17:50.423Z,5.27
2019-01-28T15:20:25.043Z,5.30
2019-01-28T15:22:52.242Z,5.39
2019-01-28T15:25:19.524Z,5.33
2019-01-28T15:27:46.728Z,5.39
2019-01-28T15:30:22.126Z,5.31
2019-01-28T15:32:49.489Z,5.34
2019-01-28T15:35:16.848Z,5.34
2019-01-28T15:37:44.400Z,5.41
2019-01-28T15:40:15.224Z,5.39
2019-01-28T15:42:42.391Z,5.40
2019-01-28T15:45:13.246Z,5.38
2019-01-28T15:47:40.326Z,5.32
2019-01-28T15:50:10.748Z,5.26
2019-01-28T15:52:37.581Z,5.29
2019-01-28T15:55:07.182Z,5.26
2019-01-28T15:57:34.389Z,5.14
2019-01-28T16:00:01.895Z,5.10
2019-01-28T16:02:29.354Z,5.22
2019-01-28T16:04:56.556Z,5.41
2019-01-28T16:07:23.754Z,5.32
2019-01-28T16:09:51.256Z,5.27
2019-01-28T16:12:18.442Z,5.17
2019-01-28T16:14:45.908Z,5.04
2019-01-28T16:17:13.150Z,4.99
2019-01-28T16:19:40.341Z,5.03
2019-01-28T16:22:07.825Z,4.98
2019-01-28T16:24:35.379Z,4.99
2019-01-28T16:27:02.615Z,4.93
2019-01-28T16:29:29.765Z,4.79
2019-01-28T16:31:56.857Z,4.81
2019-01-28T16:34:24.011Z,4.75
2019-01-28T16:36:51.514Z,4.72
2019-01-28T16:39:18.710Z,4.80
2019-01-28T16:41:45.897Z,4.82
2019-01-28T16:44:13.150Z,4.79
2019-01-28T16:46:40.360Z,4.70
2019-01-28T16:49:07.562Z,4.76
2019-01-28T16:51:35.053Z,4.82
2019-01-28T16:54:02.264Z,4.87
2019-01-28T16:56:29.471Z,4.76
2019-01-28T16:58:56.709Z,4.70
2019-01-28T17:01:23.900Z,4.66
2019-01-28T17:03:51.265Z,4.66
2019-01-28T17:06:18.454Z,4.63
2019-01-28T17:08:45.572Z,4.75
2019-01-28T17:11:13.165Z,4.69
2019-01-28T17:13:40.374Z,4.70
2019-01-28T17:16:07.638Z,4.66
2019-01-28T17:18:34.975Z,4.73
2019-01-28T17:21:02.290Z,4.73
2019-01-28T17:23:29.420Z,4.64
2019-01-28T17:25:57.221Z,4.46
2019-01-28T17:28:24.569Z,4.58
2019-01-28T17:30:51.737Z,4.56
2019-01-28T17:33:18.821Z,4.61
2019-01-28T17:35:45.998Z,4.55
2019-01-28T17:38:13.250Z,4.42
2019-01-28T17:40:41.973Z,4.41
2019-01-28T17:43:09.964Z,4.43
2019-01-28T17:45:37.260Z,4.35
2019-01-28T17:48:05.503Z,4.41
2019-01-28T17:50:33.098Z,4.34
2019-01-28T17:53:00.307Z,4.39
2019-01-28T17:55:27.404Z,4.23
2019-01-28T17:57:54.595Z,4.30
2019-01-28T18:00:35.141Z,4.24
2019-01-28T18:03:02.747Z,4.33
2019-01-28T18:05:29.865Z,4.33
2019-01-28T18:07:57.062Z,4.42
2019-01-28T18:10:24.244Z,4.28
2019-01-28T18:12:51.458Z,4.28
2019-01-28T18:15:18.701Z,4.41
2019-01-28T18:17:45.756Z,4.38
2019-01-28T18:20:14.150Z,4.31
2019-01-28T18:22:42.785Z,4.28
2019-01-28T18:25:11.135Z,4.41
2019-01-28T18:27:38.352Z,4.47
2019-01-28T18:30:08.682Z,4.49
2019-01-28T18:32:35.977Z,4.40
2019-01-28T18:35:04.489Z,4.53
2019-01-28T18:37:31.723Z,4.48
2019-01-28T18:39:58.931Z,4.55
2019-01-28T18:42:26.058Z,4.51
2019-01-28T18:44:53.593Z,4.49
2019-01-28T18:47:20.890Z,4.63
2019-01-28T18:49:48.065Z,4.50
2019-01-28T18:52:15.347Z,4.50
2019-01-28T18:54:42.709Z,4.52
2019-01-28T18:57:09.909Z,4.47
2019-01-28T18:59:37.119Z,4.54
2019-01-28T19:02:04.317Z,4.38
2019-01-28T19:04:31.834Z,4.33
2019-01-28T19:07:31.547Z,4.38
2019-01-28T19:10:25.290Z,4.40
2019-01-28T19:13:06.440Z,4.58
2019-01-28T19:16:02.417Z,4.60
2019-01-28T19:18:34.932Z,4.48
2019-01-28T19:21:08.188Z,4.64
2019-01-28T19:23:35.381Z,4.41
2019-01-28T19:26:02.628Z,4.19
2019-01-28T19:28:29.867Z,4.10
2019-01-28T19:30:57.379Z,4.11
2019-01-28T19:33:24.623Z,4.13
2019-01-28T19:35:51.986Z,4.13
2019-01-28T19:38:19.425Z,4.08
2019-01-28T19:40:46.929Z,4.18
2019-01-28T19:43:14.133Z,4.15
2019-01-28T19:45:41.336Z,4.18
2019-01-28T19:48:08.491Z,4.22
2019-01-28T19:50:35.605Z,4.22
2019-01-28T19:53:02.910Z,4.26
2019-01-28T19:55:29.974Z,4.39
2019-01-28T19:58:00.387Z,4.27
2019-01-28T20:00:29.285Z,4.15
2019-01-28T20:02:58.452Z,4.11
2019-01-28T20:05:25.652Z,4.00
2019-01-28T20:07:52.861Z,3.97
2019-01-28T20:10:20.026Z,3.88
2019-01-28T20:12:47.248Z,3.85
2019-01-28T20:15:15.634Z,3.91
2019-01-28T20:17:42.682Z,4.17
2019-01-28T20:20:11.608Z,4.23
2019-01-28T20:22:38.823Z,4.18
2019-01-28T20:25:07.368Z,4.04
2019-01-28T20:27:34.870Z,3.97
2019-01-28T20:30:03.312Z,3.97
2019-01-28T20:32:30.651Z,3.99
2019-01-28T20:34:57.850Z,4.02
2019-01-28T20:37:25.065Z,3.99
2019-01-28T20:39:52.290Z,3.90
2019-01-28T20:42:19.540Z,3.97
2019-01-28T20:44:46.827Z,3.92
2019-01-28T20:47:14.002Z,3.85
2019-01-28T20:49:41.293Z,3.77
2019-01-28T20:52:08.485Z,3.71
2019-01-28T20:54:35.678Z,3.71
2019-01-28T20:57:03.023Z,3.69
2019-01-28T20:59:30.759Z,3.78
2019-01-28T21:01:57.933Z,3.80
2019-01-28T21:04:25.128Z,3.84
2019-01-28T21:06:52.344Z,3.82
2019-01-28T21:09:19.598Z,3.75
2019-01-28T21:11:46.777Z,3.95
2019-01-28T21:14:14.165Z,3.94
2019-01-28T21:16:41.377Z,3.95
2019-01-28T21:19:08.453Z,3.87
2019-01-28T21:21:41.780Z,3.96
2019-01-28T21:24:04.717Z,3.97
2019-01-28T21:26:31.954Z,3.76
2019-01-28T21:28:59.517Z,3.65
2019-01-28T21:31:26.695Z,3.63
2019-01-28T21:33:53.858Z,3.63
2019-01-28T21:36:31.872Z,3.69
2019-01-28T21:38:59.094Z,3.71
2019-01-28T21:41:26.320Z,3.74
2019-01-28T21:43:53.578Z,3.86
2019-01-28T21:46:21.278Z,3.77
2019-01-28T21:48:48.648Z,3.76
2019-01-28T21:51:15.890Z,3.83
2019-01-28T21:53:43.037Z,3.91
2019-01-28T21:56:10.359Z,3.90
2019-01-28T21:58:37.592Z,3.87
2019-01-28T22:01:05.940Z,3.85
2019-01-28T22:03:33.115Z,3.80
2019-01-28T22:06:00.254Z,3.72
2019-01-28T22:08:27.428Z,3.79
2019-01-28T22:10:56.226Z,3.70
2019-01-28T22:13:23.641Z,3.81
2019-01-28T22:15:50.906Z,3.78
2019-01-28T22:18:17.995Z,3.89
2019-01-28T22:20:45.177Z,3.99
2019-01-28T22:23:12.369Z,3.97
2019-01-28T22:25:39.540Z,4.07
2019-01-28T22:28:07.046Z,4.11
2019-01-28T22:30:34.232Z,4.05
2019-01-28T22:33:01.399Z,3.99
2019-01-28T22:35:28.495Z,3.97
2019-01-28T22:37:55.745Z,3.89
2019-01-28T22:40:22.897Z,4.02
2019-01-28T22:42:50.154Z,4.21
2019-01-28T22:45:17.502Z,4.20
2019-01-28T22:47:44.797Z,4.17
2019-01-28T22:50:13.683Z,4.20
2019-01-28T22:52:40.782Z,4.07
2019-01-28T22:55:09.007Z,3.92
2019-01-28T22:57:36.339Z,3.79
2019-01-28T23:00:12.416Z,3.77
2019-01-28T23:02:39.791Z,3.72
2019-01-28T23:05:07.060Z,3.68
2019-01-28T23:07:34.246Z,3.65
2019-01-28T23:10:01.485Z,3.63
2019-01-28T23:12:28.778Z,3.61
2019-01-28T23:14:56.011Z,3.56
2019-01-28T23:17:23.221Z,3.47
2019-01-28T23:19:50.408Z,3.56
2019-01-28T23:22:17.635Z,3.43
2019-01-28T23:24:44.816Z,3.57
2019-01-28T23:27:12.035Z,3.54
2019-01-28T23:29:39.152Z,3.61
2019-01-28T23:32:06.362Z,3.58
2019-01-28T23:34:33.433Z,3.58
2019-01-28T23:37:00.616Z,3.54
2019-01-28T23:39:27.824Z,3.56
2019-01-28T23:41:54.990Z,3.46
2019-01-28T23:44:22.175Z,3.35
2019-01-28T23:46:49.383Z,3.28
2019-01-28T23:49:16.635Z,3.40
2019-01-28T23:51:43.871Z,3.36
2019-01-28T23:54:10.958Z,3.37
2019-01-28T23:56:38.111Z,3.42
2019-01-28T23:59:05.303Z,3.47
